createdAt,value
2018-06-29T00:00:17.040Z,1001.32
2018-06-29T00:01:17.075Z,1001.35
2018-06-29T00:02:17.077Z,1001.34
2018-06-29T00:03:17.092Z,1001.34
2018-06-29T00:04:17.106Z,1001.31
2018-06-29T00:05:17.127Z,1001.29
2018-06-29T00:06:17.144Z,1001.34
2018-06-29T00:07:17.164Z,1001.35
2018-06-29T00:08:17.177Z,1001.31
2018-06-29T00:09:17.195Z,1001.36
2018-06-29T00:10:17.209Z,1001.37
2018-06-29T00:11:17.229Z,1001.36
2018-06-29T00:12:17.296Z,1001.37
2018-06-29T00:13:17.255Z,1001.33
2018-06-29T00:14:17.281Z,1001.31
2018-06-29T00:15:17.442Z,1001.28
2018-06-29T00:16:17.309Z,1001.28
2018-06-29T00:17:17.333Z,1001.28
2018-06-29T00:18:17.396Z,1001.23
2018-06-29T00:19:17.371Z,1001.28
2018-06-29T00:20:17.380Z,1001.27
2018-06-29T00:21:17.398Z,1001.19
2018-06-29T00:22:17.408Z,1001.20
2018-06-29T00:23:17.426Z,1001.16
2018-06-29T00:24:17.496Z,1001.14
2018-06-29T00:25:17.468Z,1001.11
2018-06-29T00:26:17.479Z,1001.14
2018-06-29T00:27:17.497Z,1001.09
2018-06-29T00:28:17.515Z,1001.15
2018-06-29T00:29:17.531Z,1001.10
2018-06-29T00:30:17.597Z,1001.10
2018-06-29T00:31:17.566Z,1001.08
2018-06-29T00:32:17.598Z,1001.06
2018-06-29T00:33:17.598Z,1001.07
2018-06-29T00:34:17.619Z,1001.06
2018-06-29T00:35:17.633Z,1001.02
2018-06-29T00:36:17.697Z,1001.02
2018-06-29T00:37:17.666Z,1001.05
2018-06-29T00:38:17.726Z,1001.01
2018-06-29T00:39:17.699Z,1000.98
2018-06-29T00:40:17.710Z,1000.97
2018-06-29T00:41:17.780Z,1001.00
2018-06-29T00:42:17.749Z,1001.00
2018-06-29T00:43:17.769Z,1001.00
2018-06-29T00:44:17.799Z,1000.99
2018-06-29T00:45:17.823Z,1000.98
2018-06-29T00:46:17.813Z,1000.93
2018-06-29T00:47:17.885Z,1000.94
2018-06-29T00:48:17.856Z,1000.92
2018-06-29T00:49:17.869Z,1000.91
2018-06-29T00:50:17.887Z,1000.88
2018-06-29T00:51:17.901Z,1000.89
2018-06-29T00:52:17.917Z,1000.91
2018-06-29T00:53:17.987Z,1000.83
2018-06-29T00:54:17.947Z,1000.80
2018-06-29T00:55:18.006Z,1000.78
2018-06-29T00:56:17.988Z,1000.82
2018-06-29T00:57:18.005Z,1000.79
2018-06-29T00:58:18.020Z,1000.78
2018-06-29T00:59:18.087Z,1000.78
2018-06-29T01:00:18.052Z,1000.82
2018-06-29T01:01:18.068Z,1000.76
2018-06-29T01:02:18.086Z,1000.75
2018-06-29T01:03:18.101Z,1000.76
2018-06-29T01:04:18.119Z,1000.72
2018-06-29T01:05:18.137Z,1000.74
2018-06-29T01:06:18.149Z,1000.70
2018-06-29T01:07:18.174Z,1000.71
2018-06-29T01:08:18.254Z,1000.68
2018-06-29T01:09:18.201Z,1000.68
2018-06-29T01:10:18.220Z,1000.67
2018-06-29T01:11:18.241Z,1000.67
2018-06-29T01:12:18.255Z,1000.65
2018-06-29T01:13:18.279Z,1000.67
2018-06-29T01:14:18.289Z,1000.65
2018-06-29T01:15:18.352Z,1000.65
2018-06-29T01:16:18.324Z,1000.62
2018-06-29T01:17:18.389Z,1000.58
2018-06-29T01:18:18.353Z,1000.59
2018-06-29T01:19:18.377Z,1000.53
2018-06-29T01:20:18.394Z,1000.53
2018-06-29T01:21:18.412Z,1000.56
2018-06-29T01:22:18.428Z,1000.56
2018-06-29T01:23:18.492Z,1000.52
2018-06-29T01:24:18.456Z,1000.51
2018-06-29T01:25:18.475Z,1000.55
2018-06-29T01:26:18.496Z,1000.54
2018-06-29T01:27:18.515Z,1000.52
2018-06-29T01:28:18.535Z,1000.49
2018-06-29T01:29:18.546Z,1000.55
2018-06-29T01:30:18.558Z,1000.52
2018-06-29T01:31:18.577Z,1000.49
2018-06-29T01:32:18.594Z,1000.49
2018-06-29T01:33:18.611Z,1000.49
2018-06-29T01:34:18.630Z,1000.46
2018-06-29T01:35:18.652Z,1000.43
2018-06-29T01:36:18.661Z,1000.45
2018-06-29T01:37:18.677Z,1000.42
2018-06-29T01:38:18.699Z,1000.39
2018-06-29T01:39:18.722Z,1000.35
2018-06-29T01:40:18.728Z,1000.32
2018-06-29T01:41:18.748Z,1000.33
2018-06-29T01:42:18.761Z,1000.34
2018-06-29T01:43:18.787Z,1000.30
2018-06-29T01:44:18.795Z,1000.32
2018-06-29T01:45:18.816Z,1000.27
2018-06-29T01:46:18.848Z,1000.24
2018-06-29T01:47:18.853Z,1000.24
2018-06-29T01:48:18.867Z,1000.22
2018-06-29T01:49:18.881Z,1000.21
2018-06-29T01:50:18.895Z,1000.21
2018-06-29T01:51:18.915Z,1000.20
2018-06-29T01:52:19.158Z,1000.22
2018-06-29T01:53:18.956Z,1000.20
2018-06-29T01:54:18.965Z,1000.23
2018-06-29T01:55:18.985Z,1000.22
2018-06-29T01:56:19.000Z,1000.26
2018-06-29T01:57:19.021Z,1000.24
2018-06-29T01:58:19.046Z,1000.18
2018-06-29T01:59:19.054Z,1000.16
2018-06-29T02:00:19.064Z,1000.16
2018-06-29T02:01:19.087Z,1000.14
2018-06-29T02:02:19.107Z,1000.12
2018-06-29T02:03:19.123Z,1000.13
2018-06-29T02:04:19.191Z,1000.13
2018-06-29T02:05:19.152Z,1000.10
2018-06-29T02:06:19.171Z,1000.11
2018-06-29T02:07:19.190Z,1000.14
2018-06-29T02:08:19.209Z,1000.15
2018-06-29T02:09:19.223Z,1000.11
2018-06-29T02:10:19.238Z,1000.14
2018-06-29T02:11:19.260Z,1000.15
2018-06-29T02:12:19.271Z,1000.13
2018-06-29T02:13:19.295Z,1000.10
2018-06-29T02:14:19.305Z,1000.14
2018-06-29T02:15:19.325Z,1000.11
2018-06-29T02:16:19.350Z,1000.12
2018-06-29T02:17:19.359Z,1000.09
2018-06-29T02:18:19.374Z,1000.10
2018-06-29T02:19:19.389Z,1000.05
2018-06-29T02:20:19.404Z,1000.06
2018-06-29T02:21:19.422Z,1000.01
2018-06-29T02:22:19.445Z,1000.00
2018-06-29T02:23:19.466Z,1000.01
2018-06-29T02:24:19.470Z,1000.00
2018-06-29T02:25:19.494Z,1000.00
2018-06-29T02:26:19.507Z,1000.00
2018-06-29T02:27:19.523Z,1000.01
2018-06-29T02:28:19.597Z,999.97
2018-06-29T02:29:19.563Z,1000.00
2018-06-29T02:30:19.585Z,1000.02
2018-06-29T02:31:19.596Z,1000.04
2018-06-29T02:32:19.614Z,1000.00
2018-06-29T02:33:19.632Z,1000.01
2018-06-29T02:34:19.649Z,999.99
2018-06-29T02:35:19.665Z,999.94
2018-06-29T02:36:19.681Z,999.97
2018-06-29T02:37:19.698Z,999.94
2018-06-29T02:38:19.714Z,999.91
2018-06-29T02:39:19.734Z,999.89
2018-06-29T02:40:19.793Z,999.89
2018-06-29T02:41:19.762Z,999.92
2018-06-29T02:42:19.780Z,999.94
2018-06-29T02:43:19.798Z,999.92
2018-06-29T02:44:19.817Z,999.92
2018-06-29T02:45:19.833Z,999.95
2018-06-29T02:46:19.851Z,999.94
2018-06-29T02:47:19.899Z,999.94
2018-06-29T02:48:19.881Z,999.93
2018-06-29T02:49:19.903Z,999.87
2018-06-29T02:50:19.924Z,999.86
2018-06-29T02:51:19.927Z,999.84
2018-06-29T02:52:19.951Z,999.75
2018-06-29T02:53:20.004Z,999.76
2018-06-29T02:54:19.980Z,999.77
2018-06-29T02:55:19.999Z,999.77
2018-06-29T02:56:20.016Z,999.78
2018-06-29T02:57:20.037Z,999.76
2018-06-29T02:58:20.096Z,999.75
2018-06-29T02:59:20.093Z,999.78
2018-06-29T03:00:20.080Z,999.77
2018-06-29T03:01:20.121Z,999.73
2018-06-29T03:02:20.112Z,999.75
2018-06-29T03:03:20.131Z,999.68
2018-06-29T03:04:20.260Z,999.69
2018-06-29T03:05:20.162Z,999.66
2018-06-29T03:06:20.188Z,999.67
2018-06-29T03:07:20.200Z,999.61
2018-06-29T03:08:20.215Z,999.64
2018-06-29T03:09:20.236Z,999.64
2018-06-29T03:10:20.305Z,999.65
2018-06-29T03:11:20.268Z,999.64
2018-06-29T03:12:20.290Z,999.61
2018-06-29T03:13:20.305Z,999.63
2018-06-29T03:14:20.315Z,999.59
2018-06-29T03:15:20.341Z,999.58
2018-06-29T03:16:20.407Z,999.59
2018-06-29T03:17:20.371Z,999.58
2018-06-29T03:18:20.387Z,999.60
2018-06-29T03:19:20.405Z,999.55
2018-06-29T03:20:20.415Z,999.54
2018-06-29T03:21:20.432Z,999.56
2018-06-29T03:22:20.450Z,999.54
2018-06-29T03:23:20.464Z,999.58
2018-06-29T03:24:20.481Z,999.52
2018-06-29T03:25:20.564Z,999.50
2018-06-29T03:26:20.515Z,999.54
2018-06-29T03:27:20.537Z,999.53
2018-06-29T03:28:20.556Z,999.52
2018-06-29T03:29:20.570Z,999.52
2018-06-29T03:30:20.583Z,999.53
2018-06-29T03:31:20.675Z,999.54
2018-06-29T03:32:20.724Z,999.56
2018-06-29T03:33:20.635Z,999.56
2018-06-29T03:34:20.703Z,999.58
2018-06-29T03:35:20.666Z,999.57
2018-06-29T03:36:20.680Z,999.57
2018-06-29T03:37:20.712Z,999.58
2018-06-29T03:38:20.717Z,999.53
2018-06-29T03:39:20.733Z,999.51
2018-06-29T03:40:20.898Z,999.50
2018-06-29T03:41:20.768Z,999.48
2018-06-29T03:42:20.787Z,999.49
2018-06-29T03:43:20.801Z,999.49
2018-06-29T03:44:20.818Z,999.45
2018-06-29T03:45:20.833Z,999.49
2018-06-29T03:46:20.899Z,999.49
2018-06-29T03:47:20.879Z,999.46
2018-06-29T03:48:20.890Z,999.48
2018-06-29T03:49:20.897Z,999.45
2018-06-29T03:50:20.947Z,999.43
2018-06-29T03:51:20.984Z,999.44
2018-06-29T03:52:20.944Z,999.42
2018-06-29T03:53:20.965Z,999.45
2018-06-29T03:54:20.978Z,999.39
2018-06-29T03:55:20.995Z,999.38
2018-06-29T03:56:21.094Z,999.41
2018-06-29T03:57:21.031Z,999.40
2018-06-29T03:58:21.045Z,999.37
2018-06-29T03:59:21.067Z,999.39
2018-06-29T04:00:21.081Z,999.37
2018-06-29T04:01:21.099Z,999.38
2018-06-29T04:02:21.161Z,999.40
2018-06-29T04:03:21.251Z,999.33
2018-06-29T04:04:21.153Z,999.35
2018-06-29T04:05:21.166Z,999.37
2018-06-29T04:06:21.182Z,999.38
2018-06-29T04:07:21.200Z,999.37
2018-06-29T04:08:21.215Z,999.36
2018-06-29T04:09:21.231Z,999.34
2018-06-29T04:10:21.250Z,999.36
2018-06-29T04:11:21.258Z,999.36
2018-06-29T04:12:21.282Z,999.32
2018-06-29T04:13:21.298Z,999.35
2018-06-29T04:14:21.312Z,999.38
2018-06-29T04:15:21.331Z,999.29
2018-06-29T04:16:21.348Z,999.37
2018-06-29T04:17:21.359Z,999.40
2018-06-29T04:18:21.376Z,999.38
2018-06-29T04:19:21.392Z,999.39
2018-06-29T04:20:21.414Z,999.43
2018-06-29T04:21:21.478Z,999.41
2018-06-29T04:22:21.439Z,999.42
2018-06-29T04:23:21.463Z,999.42
2018-06-29T04:24:21.476Z,999.42
2018-06-29T04:25:21.496Z,999.42
2018-06-29T04:26:21.550Z,999.41
2018-06-29T04:27:21.632Z,999.41
2018-06-29T04:28:21.541Z,999.47
2018-06-29T04:29:21.562Z,999.49
2018-06-29T04:30:21.577Z,999.47
2018-06-29T04:31:21.588Z,999.52
2018-06-29T04:32:21.608Z,999.53
2018-06-29T04:33:21.704Z,999.51
2018-06-29T04:34:21.645Z,999.57
2018-06-29T04:35:21.662Z,999.50
2018-06-29T04:36:21.674Z,999.58
2018-06-29T04:37:21.693Z,999.55
2018-06-29T04:38:21.712Z,999.54
2018-06-29T04:39:21.726Z,999.52
2018-06-29T04:40:21.740Z,999.49
2018-06-29T04:41:21.756Z,999.49
2018-06-29T04:42:21.772Z,999.52
2018-06-29T04:43:21.789Z,999.52
2018-06-29T04:44:21.809Z,999.53
2018-06-29T04:45:21.817Z,999.55
2018-06-29T04:46:21.834Z,999.55
2018-06-29T04:47:21.853Z,999.54
2018-06-29T04:48:21.871Z,999.54
2018-06-29T04:49:21.953Z,999.50
2018-06-29T04:50:21.906Z,999.50
2018-06-29T04:51:21.974Z,999.52
2018-06-29T04:52:22.003Z,999.48
2018-06-29T04:53:21.955Z,999.47
2018-06-29T04:54:21.967Z,999.47
2018-06-29T04:55:21.984Z,999.51
2018-06-29T04:56:22.006Z,999.49
2018-06-29T04:57:22.016Z,999.50
2018-06-29T04:58:22.127Z,999.54
2018-06-29T04:59:22.053Z,999.50
2018-06-29T05:00:22.071Z,999.52
2018-06-29T05:01:22.083Z,999.52
2018-06-29T05:02:22.099Z,999.52
2018-06-29T05:03:22.121Z,999.53
2018-06-29T05:04:22.184Z,999.52
2018-06-29T05:05:22.153Z,999.51
2018-06-29T05:06:22.195Z,999.51
2018-06-29T05:07:22.181Z,999.49
2018-06-29T05:08:22.203Z,999.51
2018-06-29T05:09:22.221Z,999.52
2018-06-29T05:10:22.253Z,999.52
2018-06-29T05:11:22.252Z,999.48
2018-06-29T05:12:22.264Z,999.51
2018-06-29T05:13:22.285Z,999.45
2018-06-29T05:14:22.302Z,999.48
2018-06-29T05:15:22.375Z,999.47
2018-06-29T05:16:22.333Z,999.43
2018-06-29T05:17:22.353Z,999.42
2018-06-29T05:18:22.366Z,999.42
2018-06-29T05:19:22.380Z,999.38
2018-06-29T05:20:22.396Z,999.40
2018-06-29T05:21:22.414Z,999.43
2018-06-29T05:22:22.433Z,999.42
2018-06-29T05:23:22.509Z,999.39
2018-06-29T05:24:22.462Z,999.39
2018-06-29T05:25:22.485Z,999.42
2018-06-29T05:26:22.498Z,999.39
2018-06-29T05:27:22.571Z,999.42
2018-06-29T05:28:22.529Z,999.39
2018-06-29T05:29:22.626Z,999.43
2018-06-29T05:30:22.566Z,999.43
2018-06-29T05:31:22.583Z,999.38
2018-06-29T05:32:22.601Z,999.37
2018-06-29T05:33:22.666Z,999.39
2018-06-29T05:34:22.634Z,999.39
2018-06-29T05:35:22.743Z,999.38
2018-06-29T05:36:22.665Z,999.41
2018-06-29T05:37:22.685Z,999.38
2018-06-29T05:38:22.702Z,999.37
2018-06-29T05:39:22.715Z,999.35
2018-06-29T05:40:22.735Z,999.34
2018-06-29T05:41:22.826Z,999.31
2018-06-29T05:42:22.768Z,999.33
2018-06-29T05:43:22.779Z,999.34
2018-06-29T05:44:22.797Z,999.37
2018-06-29T05:45:22.825Z,999.35
2018-06-29T05:46:22.831Z,999.38
2018-06-29T05:47:22.852Z,999.42
2018-06-29T05:48:22.868Z,999.35
2018-06-29T05:49:23.037Z,999.37
2018-06-29T05:50:22.894Z,999.38
2018-06-29T05:51:22.920Z,999.40
2018-06-29T05:52:22.928Z,999.35
2018-06-29T05:53:22.948Z,999.38
2018-06-29T05:54:22.968Z,999.37
2018-06-29T05:55:22.981Z,999.35
2018-06-29T05:56:23.000Z,999.33
2018-06-29T05:57:23.119Z,999.36
2018-06-29T05:58:23.031Z,999.36
2018-06-29T05:59:23.051Z,999.36
2018-06-29T06:00:23.063Z,999.34
2018-06-29T06:01:23.079Z,999.33
2018-06-29T06:02:23.103Z,999.34
2018-06-29T06:03:23.125Z,999.29
2018-06-29T06:04:23.127Z,999.25
2018-06-29T06:05:23.147Z,999.23
2018-06-29T06:06:23.165Z,999.20
2018-06-29T06:07:23.182Z,999.18
2018-06-29T06:08:23.195Z,999.16
2018-06-29T06:09:23.270Z,999.16
2018-06-29T06:10:23.233Z,999.16
2018-06-29T06:11:23.263Z,999.13
2018-06-29T06:12:23.274Z,999.15
2018-06-29T06:13:23.299Z,999.15
2018-06-29T06:14:23.296Z,999.17
2018-06-29T06:15:23.320Z,999.15
2018-06-29T06:16:23.336Z,999.13
2018-06-29T06:17:23.379Z,999.17
2018-06-29T06:18:23.365Z,999.16
2018-06-29T06:19:23.386Z,999.20
2018-06-29T06:20:23.401Z,999.20
2018-06-29T06:21:23.422Z,999.21
2018-06-29T06:22:23.435Z,999.22
2018-06-29T06:23:23.539Z,999.20
2018-06-29T06:24:23.464Z,999.22
2018-06-29T06:25:23.482Z,999.19
2018-06-29T06:26:23.505Z,999.20
2018-06-29T06:27:23.523Z,999.17
2018-06-29T06:28:23.536Z,999.16
2018-06-29T06:29:23.625Z,999.17
2018-06-29T06:30:23.573Z,999.18
2018-06-29T06:31:23.582Z,999.20
2018-06-29T06:32:23.610Z,999.19
2018-06-29T06:33:23.687Z,999.20
2018-06-29T06:34:23.638Z,999.28
2018-06-29T06:35:23.722Z,999.25
2018-06-29T06:36:23.675Z,999.31
2018-06-29T06:37:23.691Z,999.37
2018-06-29T06:38:23.709Z,999.39
2018-06-29T06:39:23.774Z,999.34
2018-06-29T06:40:23.742Z,999.39
2018-06-29T06:41:23.765Z,999.38
2018-06-29T06:42:23.774Z,999.41
2018-06-29T06:43:23.787Z,999.36
2018-06-29T06:44:23.803Z,999.40
2018-06-29T06:45:23.824Z,999.43
2018-06-29T06:46:23.844Z,999.39
2018-06-29T06:47:23.878Z,999.38
2018-06-29T06:48:23.879Z,999.34
2018-06-29T06:49:23.895Z,999.37
2018-06-29T06:50:23.912Z,999.35
2018-06-29T06:51:23.981Z,999.34
2018-06-29T06:52:23.948Z,999.34
2018-06-29T06:53:23.966Z,999.35
2018-06-29T06:54:23.981Z,999.32
2018-06-29T06:55:24.003Z,999.33
2018-06-29T06:56:24.019Z,999.31
2018-06-29T06:57:24.083Z,999.29
2018-06-29T06:58:24.058Z,999.30
2018-06-29T06:59:24.126Z,999.26
2018-06-29T07:00:24.082Z,999.24
2018-06-29T07:01:24.100Z,999.22
2018-06-29T07:02:24.172Z,999.27
2018-06-29T07:03:24.140Z,999.29
2018-06-29T07:04:24.159Z,999.26
2018-06-29T07:05:24.176Z,999.27
2018-06-29T07:06:24.259Z,999.31
2018-06-29T07:07:24.211Z,999.35
2018-06-29T07:08:24.235Z,999.39
2018-06-29T07:09:24.248Z,999.32
2018-06-29T07:10:24.268Z,999.37
2018-06-29T07:11:24.290Z,999.38
2018-06-29T07:12:24.389Z,999.38
2018-06-29T07:13:24.319Z,999.43
2018-06-29T07:14:24.389Z,999.37
2018-06-29T07:15:24.358Z,999.35
2018-06-29T07:16:24.377Z,999.33
2018-06-29T07:17:24.399Z,999.35
2018-06-29T07:18:24.500Z,999.40
2018-06-29T07:19:24.434Z,999.44
2018-06-29T07:20:24.504Z,999.41
2018-06-29T07:21:24.465Z,999.42
2018-06-29T07:22:24.491Z,999.42
2018-06-29T07:23:24.509Z,999.40
2018-06-29T07:24:24.582Z,999.44
2018-06-29T07:25:24.540Z,999.38
2018-06-29T07:26:24.566Z,999.42
2018-06-29T07:27:24.582Z,999.44
2018-06-29T07:28:24.595Z,999.44
2018-06-29T07:29:24.621Z,999.48
2018-06-29T07:30:24.640Z,999.50
2018-06-29T07:31:24.662Z,999.51
2018-06-29T07:32:24.675Z,999.55
2018-06-29T07:33:24.692Z,999.53
2018-06-29T07:34:24.710Z,999.54
2018-06-29T07:35:24.734Z,999.54
2018-06-29T07:36:24.747Z,999.53
2018-06-29T07:37:24.779Z,999.53
2018-06-29T07:38:24.787Z,999.48
2018-06-29T07:39:24.810Z,999.49
2018-06-29T07:40:24.821Z,999.51
2018-06-29T07:41:24.844Z,999.42
2018-06-29T07:42:24.864Z,999.46
2018-06-29T07:43:24.953Z,999.44
2018-06-29T07:44:24.899Z,999.46
2018-06-29T07:45:24.919Z,999.48
2018-06-29T07:46:25.138Z,999.51
2018-06-29T07:47:24.962Z,999.57
2018-06-29T07:48:24.981Z,999.58
2018-06-29T07:49:24.993Z,999.57
2018-06-29T07:50:25.021Z,999.63
2018-06-29T07:51:25.040Z,999.58
2018-06-29T07:52:25.052Z,999.59
2018-06-29T07:53:25.069Z,999.52
2018-06-29T07:54:25.097Z,999.47
2018-06-29T07:55:25.118Z,999.51
2018-06-29T07:56:25.166Z,999.44
2018-06-29T07:57:25.162Z,999.46
2018-06-29T07:58:25.287Z,999.48
2018-06-29T07:59:25.188Z,999.49
2018-06-29T08:00:25.263Z,999.43
2018-06-29T08:01:25.285Z,999.45
2018-06-29T08:02:25.266Z,999.40
2018-06-29T08:03:25.277Z,999.38
2018-06-29T08:04:25.286Z,999.36
2018-06-29T08:05:25.302Z,999.30
2018-06-29T08:06:25.327Z,999.28
2018-06-29T08:07:25.344Z,999.27
2018-06-29T08:08:25.414Z,999.36
2018-06-29T08:09:25.384Z,999.37
2018-06-29T08:10:25.401Z,999.38
2018-06-29T08:11:25.419Z,999.41
2018-06-29T08:12:25.438Z,999.41
2018-06-29T08:13:25.547Z,999.40
2018-06-29T08:14:25.474Z,999.42
2018-06-29T08:15:25.494Z,999.45
2018-06-29T08:16:25.518Z,999.45
2018-06-29T08:17:25.531Z,999.49
2018-06-29T08:18:25.556Z,999.46
2018-06-29T08:19:25.576Z,999.48
2018-06-29T08:20:25.592Z,999.45
2018-06-29T08:21:25.628Z,999.46
2018-06-29T08:22:25.635Z,999.46
2018-06-29T08:23:25.658Z,999.44
2018-06-29T08:24:25.766Z,999.42
2018-06-29T08:25:25.741Z,999.40
2018-06-29T08:26:25.711Z,999.44
2018-06-29T08:27:25.779Z,999.48
2018-06-29T08:28:25.748Z,999.47
2018-06-29T08:29:25.761Z,999.49
2018-06-29T08:30:25.789Z,999.52
2018-06-29T08:31:25.855Z,999.53
2018-06-29T08:32:25.825Z,999.54
2018-06-29T08:33:25.912Z,999.52
2018-06-29T08:34:25.863Z,999.47
2018-06-29T08:35:25.881Z,999.49
2018-06-29T08:36:25.899Z,999.45
2018-06-29T08:37:25.972Z,999.42
2018-06-29T08:38:25.936Z,999.41
2018-06-29T08:39:26.042Z,999.43
2018-06-29T08:40:25.983Z,999.45
2018-06-29T08:41:26.006Z,999.44
2018-06-29T08:42:26.022Z,999.40
2018-06-29T08:43:26.042Z,999.42
2018-06-29T08:44:26.063Z,999.37
2018-06-29T08:45:26.155Z,999.35
2018-06-29T08:46:26.101Z,999.32
2018-06-29T08:47:26.121Z,999.27
2018-06-29T08:48:26.135Z,999.29
2018-06-29T08:49:26.213Z,999.26
2018-06-29T08:50:26.177Z,999.26
2018-06-29T08:51:26.282Z,999.23
2018-06-29T08:52:26.218Z,999.21
2018-06-29T08:53:26.236Z,999.18
2018-06-29T08:54:26.258Z,999.19
2018-06-29T08:55:26.279Z,999.20
2018-06-29T08:56:26.297Z,999.22
2018-06-29T08:57:26.346Z,999.28
2018-06-29T08:58:26.342Z,999.28
2018-06-29T08:59:26.359Z,999.34
2018-06-29T09:00:26.435Z,999.33
2018-06-29T09:01:26.399Z,999.33
2018-06-29T09:02:26.416Z,999.37
2018-06-29T09:03:26.550Z,999.33
2018-06-29T09:04:26.451Z,999.31
2018-06-29T09:05:26.476Z,999.31
2018-06-29T09:06:26.495Z,999.34
2018-06-29T09:07:26.518Z,999.31
2018-06-29T09:08:26.531Z,999.30
2018-06-29T09:09:26.558Z,999.34
2018-06-29T09:10:26.573Z,999.37
2018-06-29T09:11:26.596Z,999.36
2018-06-29T09:12:26.613Z,999.37
2018-06-29T09:13:26.628Z,999.38
2018-06-29T09:14:26.653Z,999.38
2018-06-29T09:15:26.675Z,999.36
2018-06-29T09:16:26.686Z,999.37
2018-06-29T09:17:26.707Z,999.35
2018-06-29T09:18:26.736Z,999.38
2018-06-29T09:19:26.755Z,999.35
2018-06-29T09:20:26.768Z,999.35
2018-06-29T09:21:26.792Z,999.34
2018-06-29T09:22:26.808Z,999.34
2018-06-29T09:23:26.832Z,999.33
2018-06-29T09:24:26.932Z,999.34
2018-06-29T09:25:26.871Z,999.30
2018-06-29T09:26:26.887Z,999.29
2018-06-29T09:27:26.906Z,999.29
2018-06-29T09:28:26.928Z,999.30
2018-06-29T09:29:26.952Z,999.30
2018-06-29T09:30:26.968Z,999.30
2018-06-29T09:31:26.999Z,999.28
2018-06-29T09:32:27.014Z,999.28
2018-06-29T09:33:27.028Z,999.27
2018-06-29T09:34:27.143Z,999.25
2018-06-29T09:35:27.067Z,999.25
2018-06-29T09:36:27.128Z,999.31
2018-06-29T09:37:27.162Z,999.32
2018-06-29T09:38:27.133Z,999.31
2018-06-29T09:39:27.155Z,999.36
2018-06-29T09:40:27.227Z,999.35
2018-06-29T09:41:27.295Z,999.31
2018-06-29T09:42:27.240Z,999.32
2018-06-29T09:43:27.238Z,999.35
2018-06-29T09:44:27.249Z,999.38
2018-06-29T09:45:27.275Z,999.37
2018-06-29T09:46:27.313Z,999.37
2018-06-29T09:47:27.419Z,999.39
2018-06-29T09:48:27.377Z,999.42
2018-06-29T09:49:27.407Z,999.41
2018-06-29T09:50:27.370Z,999.40
2018-06-29T09:51:27.396Z,999.38
2018-06-29T09:52:27.413Z,999.40
2018-06-29T09:53:27.433Z,999.33
2018-06-29T09:54:27.455Z,999.34
2018-06-29T09:55:27.522Z,999.28
2018-06-29T09:56:27.496Z,999.21
2018-06-29T09:57:27.511Z,999.18
2018-06-29T09:58:27.535Z,999.17
2018-06-29T09:59:27.556Z,999.16
2018-06-29T10:00:27.577Z,999.11
2018-06-29T10:01:27.676Z,999.11
2018-06-29T10:02:31.687Z,999.09
2018-06-29T10:03:27.784Z,999.04
2018-06-29T10:04:27.703Z,999.06
2018-06-29T10:05:27.675Z,999.05
2018-06-29T10:06:27.721Z,999.06
2018-06-29T10:07:27.770Z,999.05
2018-06-29T10:08:27.731Z,999.08
2018-06-29T10:09:27.763Z,999.11
2018-06-29T10:10:27.782Z,999.14
2018-06-29T10:11:27.796Z,999.11
2018-06-29T10:12:27.818Z,999.08
2018-06-29T10:13:27.889Z,999.09
2018-06-29T10:14:27.963Z,999.09
2018-06-29T10:15:27.877Z,999.14
2018-06-29T10:16:27.908Z,999.15
2018-06-29T10:17:27.920Z,999.13
2018-06-29T10:18:27.936Z,999.14
2018-06-29T10:19:28.058Z,999.19
2018-06-29T10:20:27.981Z,999.19
2018-06-29T10:21:28.006Z,999.19
2018-06-29T10:22:28.068Z,999.20
2018-06-29T10:23:28.039Z,999.22
2018-06-29T10:24:28.068Z,999.21
2018-06-29T10:25:28.093Z,999.26
2018-06-29T10:27:28.127Z,999.18
2018-06-29T10:28:28.149Z,999.17
2018-06-29T10:29:28.161Z,999.14
2018-06-29T10:30:28.191Z,999.14
2018-06-29T10:31:28.255Z,999.11
2018-06-29T10:32:28.221Z,999.16
2018-06-29T10:33:28.249Z,999.12
2018-06-29T10:34:28.263Z,999.15
2018-06-29T10:35:28.285Z,999.15
2018-06-29T10:36:28.310Z,999.14
2018-06-29T10:37:28.378Z,999.09
2018-06-29T10:38:28.349Z,999.06
2018-06-29T10:39:28.368Z,999.03
2018-06-29T10:40:28.388Z,999.04
2018-06-29T10:41:28.425Z,999.04
2018-06-29T10:42:28.430Z,999.05
2018-06-29T10:43:28.567Z,999.04
2018-06-29T10:44:28.476Z,999.06
2018-06-29T10:45:28.492Z,999.08
2018-06-29T10:46:28.515Z,999.07
2018-06-29T10:47:28.536Z,999.06
2018-06-29T10:48:28.558Z,999.07
2018-06-29T10:49:28.581Z,999.03
2018-06-29T10:50:28.596Z,999.02
2018-06-29T10:51:28.614Z,999.00
2018-06-29T10:52:28.688Z,999.03
2018-06-29T10:53:28.659Z,999.03
2018-06-29T10:54:28.683Z,999.04
2018-06-29T10:55:28.755Z,999.04
2018-06-29T10:56:28.725Z,999.04
2018-06-29T10:57:28.744Z,999.05
2018-06-29T10:58:28.765Z,999.08
2018-06-29T10:59:28.781Z,999.04
2018-06-29T11:00:28.805Z,999.07
2018-06-29T11:01:28.827Z,999.07
2018-06-29T11:02:28.858Z,999.06
2018-06-29T11:03:28.872Z,999.04
2018-06-29T11:04:28.894Z,999.06
2018-06-29T11:05:29.032Z,999.03
2018-06-29T11:06:28.928Z,999.04
2018-06-29T11:07:29.022Z,999.05
2018-06-29T11:08:28.979Z,999.01
2018-06-29T11:09:28.996Z,998.98
2018-06-29T11:10:29.013Z,999.04
2018-06-29T11:11:29.035Z,999.04
2018-06-29T11:12:29.063Z,999.03
2018-06-29T11:13:29.081Z,999.06
2018-06-29T11:14:29.102Z,999.09
2018-06-29T11:15:29.124Z,999.07
2018-06-29T11:16:29.140Z,999.13
2018-06-29T11:17:29.170Z,999.11
2018-06-29T11:18:29.183Z,999.12
2018-06-29T11:19:29.213Z,999.07
2018-06-29T11:20:29.225Z,999.06
2018-06-29T11:21:29.249Z,998.99
2018-06-29T11:22:29.320Z,998.93
2018-06-29T11:23:29.289Z,998.84
2018-06-29T11:24:29.314Z,998.85
2018-06-29T11:25:29.335Z,998.79
2018-06-29T11:26:29.357Z,998.81
2018-06-29T11:27:29.377Z,998.78
2018-06-29T11:28:29.411Z,998.75
2018-06-29T11:29:29.417Z,998.72
2018-06-29T11:30:29.444Z,998.75
2018-06-29T11:31:29.459Z,998.73
2018-06-29T11:32:29.483Z,998.73
2018-06-29T11:33:29.508Z,998.74
2018-06-29T11:34:29.525Z,998.75
2018-06-29T11:35:29.552Z,998.76
2018-06-29T11:36:29.567Z,998.72
2018-06-29T11:37:29.677Z,998.67
2018-06-29T11:38:29.626Z,998.66
2018-06-29T11:39:29.632Z,998.65
2018-06-29T11:40:29.654Z,998.65
2018-06-29T11:41:29.672Z,998.71
2018-06-29T11:42:29.755Z,998.71
2018-06-29T11:43:29.714Z,998.71
2018-06-29T11:44:29.736Z,998.71
2018-06-29T11:45:29.756Z,998.67
2018-06-29T11:46:29.782Z,998.68
2018-06-29T11:47:29.805Z,998.63
2018-06-29T11:48:29.822Z,998.64
2018-06-29T11:49:29.893Z,998.71
2018-06-29T11:50:29.868Z,998.71
2018-06-29T11:51:29.910Z,998.76
2018-06-29T11:52:29.910Z,998.85
2018-06-29T11:53:29.932Z,998.77
2018-06-29T11:54:29.949Z,998.75
2018-06-29T11:55:29.974Z,998.73
2018-06-29T11:56:29.999Z,998.65
2018-06-29T11:57:30.016Z,998.64
2018-06-29T11:58:30.043Z,998.62
2018-06-29T11:59:30.064Z,998.56
2018-06-29T12:00:30.103Z,998.53
2018-06-29T12:01:30.108Z,998.52
2018-06-29T12:02:30.135Z,998.55
2018-06-29T12:03:30.145Z,998.57
2018-06-29T12:04:30.170Z,998.54
2018-06-29T12:05:30.192Z,998.53
2018-06-29T12:06:30.215Z,998.54
2018-06-29T12:07:30.235Z,998.55
2018-06-29T12:08:30.252Z,998.54
2018-06-29T12:09:30.273Z,998.56
2018-06-29T12:10:30.296Z,998.53
2018-06-29T12:11:30.378Z,998.55
2018-06-29T12:12:30.341Z,998.55
2018-06-29T12:13:30.420Z,998.53
2018-06-29T12:14:30.389Z,998.59
2018-06-29T12:15:30.412Z,998.59
2018-06-29T12:16:30.434Z,998.61
2018-06-29T12:17:30.483Z,998.64
2018-06-29T12:18:30.479Z,998.60
2018-06-29T12:19:30.550Z,998.57
2018-06-29T12:20:30.519Z,998.57
2018-06-29T12:21:30.537Z,998.55
2018-06-29T12:22:30.569Z,998.52
2018-06-29T12:23:30.659Z,998.53
2018-06-29T12:24:30.659Z,998.52